Flugplatz Schwabmünchen

Für EDNS sind keine METAR/TAF Berichte vorhanden.
Es werden die Flugwettermeldungen vom Flugplatz Lechfeld Airport in 11 km Entfernung angezeigt.

Bericht für ETSL

vom 30.09. um 23:20 UTC

Wind 3 kt aus 230°

Sichtweite 8000 m

Temperatur 8.0°C

Taupunkt 7.0°C

Luftfeuchtigkeit 93%

Luftdruck 1015 hPa

ETSL 302320Z AUTO 23003KT 8000 // ////// 08/07 Q1015 ///
Keine Prognose (TAF) verfügbar.
Impressum